sensor_id;sensor_type;location;lat;lon;timestamp;P1;durP1;ratioP1;P2;durP2;ratioP2
50086;SDS011;35967;50.718;7.050;2023-11-21T00:04:16;9.40;;;5.10;;
50086;SDS011;35967;50.718;7.050;2023-11-21T00:14:20;7.67;;;4.30;;
50086;SDS011;35967;50.718;7.050;2023-11-21T00:24:25;11.93;;;4.40;;
50086;SDS011;35967;50.718;7.050;2023-11-21T00:34:28;11.10;;;5.17;;
50086;SDS011;35967;50.718;7.050;2023-11-21T00:44:33;8.97;;;5.27;;
50086;SDS011;35967;50.718;7.050;2023-11-21T00:54:36;10.90;;;6.63;;
50086;SDS011;35967;50.718;7.050;2023-11-21T01:04:41;9.63;;;6.53;;
50086;SDS011;35967;50.718;7.050;2023-11-21T01:14:45;13.03;;;7.17;;
50086;SDS011;35967;50.718;7.050;2023-11-21T01:24:50;13.53;;;7.90;;
50086;SDS011;35967;50.718;7.050;2023-11-21T01:34:54;10.70;;;7.37;;
50086;SDS011;35967;50.718;7.050;2023-11-21T01:44:59;16.57;;;9.10;;
50086;SDS011;35967;50.718;7.050;2023-11-21T01:55:04;16.80;;;10.37;;
50086;SDS011;35967;50.718;7.050;2023-11-21T02:05:11;16.40;;;10.67;;
50086;SDS011;35967;50.718;7.050;2023-11-21T02:15:20;18.60;;;10.67;;
50086;SDS011;35967;50.718;7.050;2023-11-21T02:25:25;15.93;;;9.43;;
50086;SDS011;35967;50.718;7.050;2023-11-21T02:35:29;21.97;;;11.17;;
50086;SDS011;35967;50.718;7.050;2023-11-21T02:45:35;22.57;;;11.77;;
50086;SDS011;35967;50.718;7.050;2023-11-21T02:55:38;23.20;;;11.80;;
50086;SDS011;35967;50.718;7.050;2023-11-21T03:05:43;30.87;;;14.53;;
50086;SDS011;35967;50.718;7.050;2023-11-21T03:15:47;32.60;;;15.67;;
50086;SDS011;35967;50.718;7.050;2023-11-21T03:25:51;35.57;;;18.67;;
50086;SDS011;35967;50.718;7.050;2023-11-21T03:35:55;35.37;;;19.10;;
50086;SDS011;35967;50.718;7.050;2023-11-21T03:46:00;30.43;;;17.93;;
50086;SDS011;35967;50.718;7.050;2023-11-21T03:56:04;31.73;;;18.63;;
50086;SDS011;35967;50.718;7.050;2023-11-21T04:06:09;37.37;;;19.27;;
50086;SDS011;35967;50.718;7.050;2023-11-21T04:16:13;36.53;;;18.37;;
50086;SDS011;35967;50.718;7.050;2023-11-21T04:26:18;35.40;;;19.10;;
50086;SDS011;35967;50.718;7.050;2023-11-21T04:36:22;30.00;;;15.33;;
50086;SDS011;35967;50.718;7.050;2023-11-21T04:46:26;35.00;;;15.20;;
50086;SDS011;35967;50.718;7.050;2023-11-21T04:56:29;30.97;;;14.63;;
50086;SDS011;35967;50.718;7.050;2023-11-21T05:06:34;29.13;;;13.80;;
50086;SDS011;35967;50.718;7.050;2023-11-21T05:16:37;31.63;;;14.77;;
50086;SDS011;35967;50.718;7.050;2023-11-21T05:26:43;30.07;;;15.53;;
50086;SDS011;35967;50.718;7.050;2023-11-21T05:36:47;28.27;;;14.30;;
50086;SDS011;35967;50.718;7.050;2023-11-21T05:46:53;31.30;;;14.50;;
50086;SDS011;35967;50.718;7.050;2023-11-21T05:56:57;40.03;;;17.73;;
50086;SDS011;35967;50.718;7.050;2023-11-21T06:07:02;33.73;;;16.87;;
50086;SDS011;35967;50.718;7.050;2023-11-21T06:17:06;38.87;;;18.40;;
50086;SDS011;35967;50.718;7.050;2023-11-21T06:27:16;41.60;;;19.73;;
50086;SDS011;35967;50.718;7.050;2023-11-21T06:37:23;38.00;;;18.73;;
50086;SDS011;35967;50.718;7.050;2023-11-21T06:47:28;37.50;;;18.40;;
50086;SDS011;35967;50.718;7.050;2023-11-21T06:57:33;34.47;;;15.87;;
50086;SDS011;35967;50.718;7.050;2023-11-21T07:07:38;35.20;;;16.90;;
50086;SDS011;35967;50.718;7.050;2023-11-21T07:17:53;34.37;;;16.93;;
50086;SDS011;35967;50.718;7.050;2023-11-21T07:27:58;34.63;;;15.43;;
50086;SDS011;35967;50.718;7.050;2023-11-21T07:38:01;34.00;;;15.17;;
50086;SDS011;35967;50.718;7.050;2023-11-21T07:48:07;34.20;;;15.43;;
50086;SDS011;35967;50.718;7.050;2023-11-21T07:58:12;36.90;;;17.03;;
50086;SDS011;35967;50.718;7.050;2023-11-21T08:08:16;31.27;;;16.53;;
50086;SDS011;35967;50.718;7.050;2023-11-21T08:18:20;34.90;;;16.90;;
50086;SDS011;35967;50.718;7.050;2023-11-21T08:28:24;43.47;;;17.10;;
50086;SDS011;35967;50.718;7.050;2023-11-21T08:38:29;42.30;;;19.40;;
50086;SDS011;35967;50.718;7.050;2023-11-21T08:48:34;38.33;;;17.77;;
50086;SDS011;35967;50.718;7.050;2023-11-21T08:58:39;46.73;;;19.83;;
50086;SDS011;35967;50.718;7.050;2023-11-21T09:08:52;45.23;;;20.77;;
50086;SDS011;35967;50.718;7.050;2023-11-21T09:19:05;46.00;;;21.10;;
50086;SDS011;35967;50.718;7.050;2023-11-21T09:29:17;43.40;;;18.63;;
50086;SDS011;35967;50.718;7.050;2023-11-21T09:39:22;51.00;;;23.20;;
50086;SDS011;35967;50.718;7.050;2023-11-21T09:49:29;50.87;;;22.80;;
50086;SDS011;35967;50.718;7.050;2023-11-21T09:59:37;49.23;;;22.90;;
50086;SDS011;35967;50.718;7.050;2023-11-21T10:09:42;45.60;;;21.87;;
50086;SDS011;35967;50.718;7.050;2023-11-21T10:19:52;54.40;;;22.37;;
50086;SDS011;35967;50.718;7.050;2023-11-21T10:29:59;51.63;;;23.43;;
50086;SDS011;35967;50.718;7.050;2023-11-21T10:40:05;47.53;;;20.33;;
50086;SDS011;35967;50.718;7.050;2023-11-21T10:50:11;42.67;;;19.97;;
50086;SDS011;35967;50.718;7.050;2023-11-21T11:00:15;39.33;;;19.07;;
50086;SDS011;35967;50.718;7.050;2023-11-21T11:10:24;30.77;;;15.30;;
50086;SDS011;35967;50.718;7.050;2023-11-21T11:20:29;46.67;;;18.73;;
50086;SDS011;35967;50.718;7.050;2023-11-21T11:30:41;34.10;;;15.63;;
50086;SDS011;35967;50.718;7.050;2023-11-21T11:41:01;37.20;;;17.03;;
50086;SDS011;35967;50.718;7.050;2023-11-21T11:51:10;44.20;;;20.57;;
50086;SDS011;35967;50.718;7.050;2023-11-21T12:01:18;41.77;;;17.30;;
50086;SDS011;35967;50.718;7.050;2023-11-21T12:11:28;40.60;;;19.03;;
50086;SDS011;35967;50.718;7.050;2023-11-21T12:21:33;41.93;;;19.77;;
50086;SDS011;35967;50.718;7.050;2023-11-21T12:31:45;47.47;;;20.10;;
50086;SDS011;35967;50.718;7.050;2023-11-21T12:41:49;41.13;;;19.27;;
50086;SDS011;35967;50.718;7.050;2023-11-21T12:51:57;44.33;;;18.80;;
50086;SDS011;35967;50.718;7.050;2023-11-21T13:02:04;40.87;;;17.60;;
50086;SDS011;35967;50.718;7.050;2023-11-21T13:12:10;52.07;;;19.43;;
50086;SDS011;35967;50.718;7.050;2023-11-21T13:22:18;38.13;;;14.93;;
50086;SDS011;35967;50.718;7.050;2023-11-21T13:32:24;43.33;;;15.13;;
50086;SDS011;35967;50.718;7.050;2023-11-21T13:42:34;38.97;;;14.37;;
50086;SDS011;35967;50.718;7.050;2023-11-21T13:52:40;32.27;;;14.07;;
50086;SDS011;35967;50.718;7.050;2023-11-21T14:02:43;38.60;;;15.27;;
50086;SDS011;35967;50.718;7.050;2023-11-21T14:12:50;35.97;;;14.87;;
50086;SDS011;35967;50.718;7.050;2023-11-21T14:22:54;42.03;;;15.37;;
50086;SDS011;35967;50.718;7.050;2023-11-21T14:33:00;28.00;;;12.60;;
50086;SDS011;35967;50.718;7.050;2023-11-21T14:43:04;34.10;;;14.43;;
50086;SDS011;35967;50.718;7.050;2023-11-21T14:53:11;35.27;;;14.60;;
50086;SDS011;35967;50.718;7.050;2023-11-21T15:03:15;32.17;;;14.57;;
50086;SDS011;35967;50.718;7.050;2023-11-21T15:13:46;27.97;;;12.50;;
50086;SDS011;35967;50.718;7.050;2023-11-21T15:23:51;43.87;;;14.67;;
50086;SDS011;35967;50.718;7.050;2023-11-21T15:33:56;40.07;;;14.73;;
50086;SDS011;35967;50.718;7.050;2023-11-21T15:44:02;37.23;;;15.10;;
50086;SDS011;35967;50.718;7.050;2023-11-21T15:54:07;41.97;;;14.90;;
50086;SDS011;35967;50.718;7.050;2023-11-21T16:04:11;36.27;;;14.87;;
50086;SDS011;35967;50.718;7.050;2023-11-21T16:14:19;36.57;;;14.90;;
50086;SDS011;35967;50.718;7.050;2023-11-21T16:34:36;41.00;;;15.83;;
50086;SDS011;35967;50.718;7.050;2023-11-21T16:44:39;46.63;;;17.97;;
50086;SDS011;35967;50.718;7.050;2023-11-21T16:54:44;52.50;;;20.03;;
50086;SDS011;35967;50.718;7.050;2023-11-21T17:04:48;51.93;;;20.80;;
50086;SDS011;35967;50.718;7.050;2023-11-21T17:14:55;135.03;;;59.53;;
50086;SDS011;35967;50.718;7.050;2023-11-21T17:24:58;65.73;;;27.70;;
50086;SDS011;35967;50.718;7.050;2023-11-21T17:35:05;50.07;;;21.77;;
50086;SDS011;35967;50.718;7.050;2023-11-21T17:45:18;39.47;;;17.63;;
50086;SDS011;35967;50.718;7.050;2023-11-21T17:55:26;30.13;;;15.77;;
50086;SDS011;35967;50.718;7.050;2023-11-21T18:05:30;31.83;;;14.13;;
50086;SDS011;35967;50.718;7.050;2023-11-21T18:15:42;30.70;;;14.80;;
50086;SDS011;35967;50.718;7.050;2023-11-21T18:25:45;21.03;;;10.67;;
50086;SDS011;35967;50.718;7.050;2023-11-21T18:36:03;13.43;;;7.40;;
50086;SDS011;35967;50.718;7.050;2023-11-21T18:46:09;15.37;;;7.53;;
50086;SDS011;35967;50.718;7.050;2023-11-21T18:56:23;13.70;;;9.13;;
50086;SDS011;35967;50.718;7.050;2023-11-21T19:06:28;10.53;;;6.20;;
50086;SDS011;35967;50.718;7.050;2023-11-21T19:16:34;11.50;;;7.27;;
50086;SDS011;35967;50.718;7.050;2023-11-21T19:26:40;9.20;;;5.87;;
50086;SDS011;35967;50.718;7.050;2023-11-21T19:36:45;8.70;;;5.10;;
50086;SDS011;35967;50.718;7.050;2023-11-21T19:46:50;9.60;;;5.50;;
50086;SDS011;35967;50.718;7.050;2023-11-21T19:57:00;10.23;;;6.00;;
50086;SDS011;35967;50.718;7.050;2023-11-21T20:07:11;5.97;;;3.40;;
50086;SDS011;35967;50.718;7.050;2023-11-21T20:17:18;5.50;;;3.67;;
50086;SDS011;35967;50.718;7.050;2023-11-21T20:27:22;6.13;;;2.90;;
50086;SDS011;35967;50.718;7.050;2023-11-21T20:48:10;7.43;;;5.63;;
50086;SDS011;35967;50.718;7.050;2023-11-21T20:58:16;9.20;;;4.90;;
50086;SDS011;35967;50.718;7.050;2023-11-21T21:08:20;22.80;;;14.73;;
50086;SDS011;35967;50.718;7.050;2023-11-21T21:18:29;7.73;;;4.50;;
50086;SDS011;35967;50.718;7.050;2023-11-21T21:28:31;8.47;;;3.87;;
50086;SDS011;35967;50.718;7.050;2023-11-21T21:38:36;6.53;;;4.27;;
50086;SDS011;35967;50.718;7.050;2023-11-21T21:48:41;9.03;;;4.87;;
50086;SDS011;35967;50.718;7.050;2023-11-21T21:58:49;6.90;;;4.50;;
50086;SDS011;35967;50.718;7.050;2023-11-21T22:08:55;7.00;;;4.70;;
50086;SDS011;35967;50.718;7.050;2023-11-21T22:19:03;7.03;;;4.90;;
50086;SDS011;35967;50.718;7.050;2023-11-21T22:29:07;5.73;;;4.20;;
50086;SDS011;35967;50.718;7.050;2023-11-21T22:39:16;6.70;;;3.80;;
50086;SDS011;35967;50.718;7.050;2023-11-21T22:49:19;6.97;;;3.67;;
50086;SDS011;35967;50.718;7.050;2023-11-21T22:59:25;7.43;;;3.53;;
50086;SDS011;35967;50.718;7.050;2023-11-21T23:09:28;6.67;;;3.73;;
50086;SDS011;35967;50.718;7.050;2023-11-21T23:19:33;7.57;;;3.67;;
50086;SDS011;35967;50.718;7.050;2023-11-21T23:29:49;7.80;;;4.53;;
50086;SDS011;35967;50.718;7.050;2023-11-21T23:39:56;10.87;;;5.07;;
50086;SDS011;35967;50.718;7.050;2023-11-21T23:50:01;10.00;;;5.10;;
